Aviation Digital Data Service (ADDS)

Output produced by METARs form (1730 UTC 03 June 2020)
found at http://www.aviationweather.gov/metar/data/
 
METAR text: RJFY 031712Z 12002KT 3500 +TSRA BR BKN002 OVC020 FEW020CB 20/18 Q1005 RMK 5ST002 8CU020 2CB020 A2968 FBL TS 20KM W MOV NE
Conditions at: RJFY (KANOYA (JMSDF) , JP) observed 1712 UTC 03 June 2020
Temperature: 20.0°C (68°F)
Dewpoint: 18.0°C (64°F) [RH = 88%]
Pressure (altimeter): 29.68 inches Hg (1005.0 mb)
Winds: from the ESE (120 degrees) at 2 MPH (2 knots; 1.0 m/s)
Visibility: 2.17 miles (3.49 km)
Ceiling: 200 feet AGL
Clouds: broken clouds at 200 feet AGL
overcast cloud deck at 2000 feet AGL
few clouds at 2000 feet AGL
Weather: +TSRA BR  (heavy rain associated with thunderstorm(s), mist)

METAR text: RJFY 031646Z 13001KT 3500 +SHRA BR FEW001 BKN003 OVC020 FEW020CB 20/19 Q1005 RMK 1ST001 5ST003 8CU020 1CB020 A2968 CB 15KM SW MOV E
Conditions at: RJFY (KANOYA (JMSDF) , JP) observed 1646 UTC 03 June 2020
Temperature: 20.0°C (68°F)
Dewpoint: 19.0°C (66°F) [RH = 94%]
Pressure (altimeter): 29.68 inches Hg (1005.0 mb)
Winds: from the SE (130 degrees) at 1 MPH (1 knots; 0.5 m/s)
Visibility: 2.17 miles (3.49 km)
Ceiling: 300 feet AGL
Clouds: few clouds at 100 feet AGL
broken clouds at 300 feet AGL
overcast cloud deck at 2000 feet AGL
few clouds at 2000 feet AGL
Weather: +SHRA BR  (heavy rain showers, mist)

METAR text: RJFY 031629Z 16001KT 4000 SHRA BR FEW001 BKN003 OVC020 21/19 Q1005 RMK 2ST001 5ST003 8CU020 A2970
Conditions at: RJFY (KANOYA (JMSDF) , JP) observed 1629 UTC 03 June 2020
Temperature: 21.0°C (70°F)
Dewpoint: 19.0°C (66°F) [RH = 88%]
Pressure (altimeter): 29.68 inches Hg (1005.0 mb)
Winds: from the SSE (160 degrees) at 1 MPH (1 knots; 0.5 m/s)
Visibility: 2.49 miles (4.01 km)
Ceiling: 300 feet AGL
Clouds: few clouds at 100 feet AGL
broken clouds at 300 feet AGL
overcast cloud deck at 2000 feet AGL
Weather: SHRA BR  (rain showers, mist)

METAR text: RJFY 031606Z 14003KT 110V180 4900 -SHRA BR FEW001 BKN003 OVC020 21/19 Q1006 RMK 2ST001 5ST003 8CU020 A2971
Conditions at: RJFY (KANOYA (JMSDF) , JP) observed 1606 UTC 03 June 2020
Temperature: 21.0°C (70°F)
Dewpoint: 19.0°C (66°F) [RH = 88%]
Pressure (altimeter): 29.70 inches Hg (1006.0 mb)
Winds: from the SE (140 degrees) at 3 MPH (3 knots; 1.5 m/s)
Visibility: 3 miles ( 5 km)
Ceiling: 300 feet AGL
Clouds: few clouds at 100 feet AGL
broken clouds at 300 feet AGL
overcast cloud deck at 2000 feet AGL
Weather: -SHRA BR  (light rain showers, mist)

METAR text: RJFY 031524Z 13001KT 5000 -SHRA BR BKN003 OVC020 20/18 Q1006 RMK 5ST003 8CU020 A2972
Conditions at: RJFY (KANOYA (JMSDF) , JP) observed 1524 UTC 03 June 2020
Temperature: 20.0°C (68°F)
Dewpoint: 18.0°C (64°F) [RH = 88%]
Pressure (altimeter): 29.70 inches Hg (1006.0 mb)
Winds: from the SE (130 degrees) at 1 MPH (1 knots; 0.5 m/s)
Visibility: 3 miles ( 5 km)
Ceiling: 300 feet AGL
Clouds: broken clouds at 300 feet AGL
overcast cloud deck at 2000 feet AGL
Weather: -SHRA BR  (light rain showers, mist)

METAR text: RJFY 031437Z 01002KT 5000 -SHRA BR SCT003 OVC020 21/18 Q1006 RMK 4ST003 8CU020 A2973
Conditions at: RJFY (KANOYA (JMSDF) , JP) observed 1437 UTC 03 June 2020
Temperature: 21.0°C (70°F)
Dewpoint: 18.0°C (64°F) [RH = 83%]
Pressure (altimeter): 29.70 inches Hg (1006.0 mb)
Winds: from the N (10 degrees) at 2 MPH (2 knots; 1.0 m/s)
Visibility: 3 miles ( 5 km)
Ceiling: 2000 feet AGL
Clouds: scattered clouds at 300 feet AGL
overcast cloud deck at 2000 feet AGL
Weather: -SHRA BR  (light rain showers, mist)

METAR text: RJFY 031219Z 07004KT 4000 -SHRA BR BKN003 OVC020 21/19 Q1007 RMK 5ST003 8CU020 A2975
Conditions at: RJFY (KANOYA (JMSDF) , JP) observed 1219 UTC 03 June 2020
Temperature: 21.0°C (70°F)
Dewpoint: 19.0°C (66°F) [RH = 88%]
Pressure (altimeter): 29.73 inches Hg (1007.0 mb)
Winds: from the ENE (70 degrees) at 5 MPH (4 knots; 2.1 m/s)
Visibility: 2.49 miles (4.01 km)
Ceiling: 300 feet AGL
Clouds: broken clouds at 300 feet AGL
overcast cloud deck at 2000 feet AGL
Weather: -SHRA BR  (light rain showers, mist)

METAR text: RJFY 031143Z 04002KT 4900 SHRA BR BKN003 SCT015 OVC025 21/19 Q1007 RMK 5ST003 3CU015 8CU025 A2975
Conditions at: RJFY (KANOYA (JMSDF) , JP) observed 1143 UTC 03 June 2020
Temperature: 21.0°C (70°F)
Dewpoint: 19.0°C (66°F) [RH = 88%]
Pressure (altimeter): 29.73 inches Hg (1007.0 mb)
Winds: from the NE (40 degrees) at 2 MPH (2 knots; 1.0 m/s)
Visibility: 3 miles ( 5 km)
Ceiling: 300 feet AGL
Clouds: broken clouds at 300 feet AGL
scattered clouds at 1500 feet AGL
overcast cloud deck at 2500 feet AGL
Weather: SHRA BR  (rain showers, mist)

METAR text: RJFY 031129Z 04004KT 010V070 5000 -SHRA BR FEW002 SCT015 OVC025 21/19 Q1007 RMK 1ST002 3CU015 8CU025 A2974
Conditions at: RJFY (KANOYA (JMSDF) , JP) observed 1129 UTC 03 June 2020
Temperature: 21.0°C (70°F)
Dewpoint: 19.0°C (66°F) [RH = 88%]
Pressure (altimeter): 29.73 inches Hg (1007.0 mb)
Winds: from the NE (40 degrees) at 5 MPH (4 knots; 2.1 m/s)
Visibility: 3 miles ( 5 km)
Ceiling: 2500 feet AGL
Clouds: few clouds at 200 feet AGL
scattered clouds at 1500 feet AGL
overcast cloud deck at 2500 feet AGL
Weather: -SHRA BR  (light rain showers, mist)

METAR text: RJFY 031103Z 08001KT 6000 SHRA FEW005 SCT012 OVC030 21/19 Q1007 RMK 2ST005 3CU012 8CU030 A2974
Conditions at: RJFY (KANOYA (JMSDF) , JP) observed 1103 UTC 03 June 2020
Temperature: 21.0°C (70°F)
Dewpoint: 19.0°C (66°F) [RH = 88%]
Pressure (altimeter): 29.73 inches Hg (1007.0 mb)
Winds: from the E (80 degrees) at 1 MPH (1 knots; 0.5 m/s)
Visibility: 4 miles ( 6 km)
Ceiling: 3000 feet AGL
Clouds: few clouds at 500 feet AGL
scattered clouds at 1200 feet AGL
overcast cloud deck at 3000 feet AGL
Weather: SHRA  (rain showers)

METAR text: RJFY 030720Z 07002KT 9999 -SHRA FEW003 SCT008 BKN020 22/20 Q1006 RMK 1ST003 4ST008 5CU020 A2972
Conditions at: RJFY (KANOYA (JMSDF) , JP) observed 0720 UTC 03 June 2020
Temperature: 22.0°C (72°F)
Dewpoint: 20.0°C (68°F) [RH = 88%]
Pressure (altimeter): 29.70 inches Hg (1006.0 mb)
Winds: from the ENE (70 degrees) at 2 MPH (2 knots; 1.0 m/s)
Visibility: 6 or more miles (10+ km)
Ceiling: 2000 feet AGL
Clouds: few clouds at 300 feet AGL
scattered clouds at 800 feet AGL
broken clouds at 2000 feet AGL
Weather: -SHRA  (light rain showers)

METAR text: RJFY 030710Z 14003KT 070V200 5000 -SHRA BR FEW003 BKN008 OVC020 22/20 Q1006 RMK 1ST003 5ST008 8CU020 A2972 VIS VRB
Conditions at: RJFY (KANOYA (JMSDF) , JP) observed 0710 UTC 03 June 2020
Temperature: 22.0°C (72°F)
Dewpoint: 20.0°C (68°F) [RH = 88%]
Pressure (altimeter): 29.70 inches Hg (1006.0 mb)
Winds: from the SE (140 degrees) at 3 MPH (3 knots; 1.5 m/s)
Visibility: 3 miles ( 5 km)
Ceiling: 800 feet AGL
Clouds: few clouds at 300 feet AGL
broken clouds at 800 feet AGL
overcast cloud deck at 2000 feet AGL
Weather: -SHRA BR  (light rain showers, mist)

METAR text: RJFY 030705Z VRB01KT 3200 -SHRA BR FEW003 BKN008 OVC015 22/20 Q1006 RMK 1ST003 5ST008 8CU015 A2972 VIS VRB
Conditions at: RJFY (KANOYA (JMSDF) , JP) observed 0705 UTC 03 June 2020
Temperature: 22.0°C (72°F)
Dewpoint: 20.0°C (68°F) [RH = 88%]
Pressure (altimeter): 29.70 inches Hg (1006.0 mb)
Winds: variable direction winds at 1 MPH (1 knots; 0.5 m/s)
Visibility: 1.99 miles (3.20 km)
Ceiling: 800 feet AGL
Clouds: few clouds at 300 feet AGL
broken clouds at 800 feet AGL
overcast cloud deck at 1500 feet AGL
Weather: -SHRA BR  (light rain showers, mist)

METAR text: RJFY 030655Z 27002KT 2400 SHRA BR FEW003 BKN008 OVC015 FEW015CB 22/20 Q1006 RMK 2ST003 6ST008 8CU015 2CB015 A2973 CB 10KM SE MOV E VIS VRB
Conditions at: RJFY (KANOYA (JMSDF) , JP) observed 0655 UTC 03 June 2020
Temperature: 22.0°C (72°F)
Dewpoint: 20.0°C (68°F) [RH = 88%]
Pressure (altimeter): 29.70 inches Hg (1006.0 mb)
Winds: from the W (270 degrees) at 2 MPH (2 knots; 1.0 m/s)
Visibility: 1.49 miles (2.40 km)
Ceiling: 800 feet AGL
Clouds: few clouds at 300 feet AGL
broken clouds at 800 feet AGL
overcast cloud deck at 1500 feet AGL
few clouds at 1500 feet AGL
Weather: SHRA BR  (rain showers, mist)

METAR text: RJFY 030645Z 30007KT 270V340 1600 TSRA BR FEW003 BKN008 OVC015 SCT015CB 22/20 Q1007 RMK 2ST003 6ST008 8CU015 3CB015 A2975 FBL TS 10KM S MOV E
Conditions at: RJFY (KANOYA (JMSDF) , JP) observed 0645 UTC 03 June 2020
Temperature: 22.0°C (72°F)
Dewpoint: 20.0°C (68°F) [RH = 88%]
Pressure (altimeter): 29.73 inches Hg (1007.0 mb)
Winds: from the WNW (300 degrees) at 8 MPH (7 knots; 3.6 m/s)
Visibility: 0.99 miles (1.59 km)
Ceiling: 800 feet AGL
Clouds: few clouds at 300 feet AGL
broken clouds at 800 feet AGL
overcast cloud deck at 1500 feet AGL
scattered clouds at 1500 feet AGL
Weather: TSRA BR  (rain associated with thunderstorm(s), mist)

METAR text: RJFY 030628Z 25005KT 1500 R26///// +TSRA BR FEW003 BKN008 OVC015CB 22/20 Q1007 RMK 2ST003 6ST008 8CB015 A2976 FBL TS 10KM SW MOV E RI++
Conditions at: RJFY (KANOYA (JMSDF) , JP) observed 0628 UTC 03 June 2020
Temperature: 22.0°C (72°F)
Dewpoint: 20.0°C (68°F) [RH = 88%]
Pressure (altimeter): 29.73 inches Hg (1007.0 mb)
Winds: from the WSW (250 degrees) at 6 MPH (5 knots; 2.6 m/s)
Visibility: 0.93 miles (1.50 km)
Ceiling: 800 feet AGL
Clouds: few clouds at 300 feet AGL
broken clouds at 800 feet AGL
overcast cloud deck at 1500 feet AGL
Weather: +TSRA BR  (heavy rain associated with thunderstorm(s), mist)

METAR text: RJFY 030553Z 11003KT 050V210 2300 +TSRA BR FEW003 BKN008 OVC015CB 22/20 Q1005 RMK 2ST003 6ST008 8CB015 A2969 FBL TS 20KM SW MOV E VIS VRB
Conditions at: RJFY (KANOYA (JMSDF) , JP) observed 0553 UTC 03 June 2020
Temperature: 22.0°C (72°F)
Dewpoint: 20.0°C (68°F) [RH = 88%]
Pressure (altimeter): 29.68 inches Hg (1005.0 mb)
Winds: from the ESE (110 degrees) at 3 MPH (3 knots; 1.5 m/s)
Visibility: 1.43 miles (2.30 km)
Ceiling: 800 feet AGL
Clouds: few clouds at 300 feet AGL
broken clouds at 800 feet AGL
overcast cloud deck at 1500 feet AGL
Weather: +TSRA BR  (heavy rain associated with thunderstorm(s), mist)

METAR text: RJFY 030547Z VRB01KT 3100 SHRA BR FEW003 BKN008 OVC015 SCT015CB 22/20 Q1006 RMK 2ST003 6ST008 8CU015 3CB015 A2971 CB OHD MOV E
Conditions at: RJFY (KANOYA (JMSDF) , JP) observed 0547 UTC 03 June 2020
Temperature: 22.0°C (72°F)
Dewpoint: 20.0°C (68°F) [RH = 88%]
Pressure (altimeter): 29.70 inches Hg (1006.0 mb)
Winds: variable direction winds at 1 MPH (1 knots; 0.5 m/s)
Visibility: 1.93 miles (3.11 km)
Ceiling: 800 feet AGL
Clouds: few clouds at 300 feet AGL
broken clouds at 800 feet AGL
overcast cloud deck at 1500 feet AGL
scattered clouds at 1500 feet AGL
Weather: SHRA BR  (rain showers, mist)

METAR text: RJFY 030450Z 11003KT 070V140 3500 -SHRA BR SCT003 BKN008 OVC015 22/20 Q1006 RMK 4ST003 6ST008 8CU015 A2971
Conditions at: RJFY (KANOYA (JMSDF) , JP) observed 0450 UTC 03 June 2020
Temperature: 22.0°C (72°F)
Dewpoint: 20.0°C (68°F) [RH = 88%]
Pressure (altimeter): 29.70 inches Hg (1006.0 mb)
Winds: from the ESE (110 degrees) at 3 MPH (3 knots; 1.5 m/s)
Visibility: 2.17 miles (3.49 km)
Ceiling: 800 feet AGL
Clouds: scattered clouds at 300 feet AGL
broken clouds at 800 feet AGL
overcast cloud deck at 1500 feet AGL
Weather: -SHRA BR  (light rain showers, mist)

METAR text: RJFY 030444Z 07002KT 3500 SHRA BR SCT003 BKN008 OVC015 22/20 Q1006 RMK 4ST003 6ST008 8CU015 A2972
Conditions at: RJFY (KANOYA (JMSDF) , JP) observed 0444 UTC 03 June 2020
Temperature: 22.0°C (72°F)
Dewpoint: 20.0°C (68°F) [RH = 88%]
Pressure (altimeter): 29.70 inches Hg (1006.0 mb)
Winds: from the ENE (70 degrees) at 2 MPH (2 knots; 1.0 m/s)
Visibility: 2.17 miles (3.49 km)
Ceiling: 800 feet AGL
Clouds: scattered clouds at 300 feet AGL
broken clouds at 800 feet AGL
overcast cloud deck at 1500 feet AGL
Weather: SHRA BR  (rain showers, mist)

METAR text: RJFY 030342Z 12002KT 3500 -SHRA BR SCT003 BKN008 OVC015 FEW015CB 22/19 Q1007 RMK 3ST003 6ST008 8CU015 1CB015 A2974 CB 10KM SE MOV E
Conditions at: RJFY (KANOYA (JMSDF) , JP) observed 0342 UTC 03 June 2020
Temperature: 22.0°C (72°F)
Dewpoint: 19.0°C (66°F) [RH = 83%]
Pressure (altimeter): 29.73 inches Hg (1007.0 mb)
Winds: from the ESE (120 degrees) at 2 MPH (2 knots; 1.0 m/s)
Visibility: 2.17 miles (3.49 km)
Ceiling: 800 feet AGL
Clouds: scattered clouds at 300 feet AGL
broken clouds at 800 feet AGL
overcast cloud deck at 1500 feet AGL
few clouds at 1500 feet AGL
Weather: -SHRA BR  (light rain showers, mist)

METAR text: RJFY 030337Z VRB01KT 3200 SHRA BR SCT003 BKN008 OVC015 FEW015CB 22/19 Q1007 RMK 3ST003 6ST008 8CU015 1CB015 A2974 CB 5KM SE MOV E
Conditions at: RJFY (KANOYA (JMSDF) , JP) observed 0337 UTC 03 June 2020
Temperature: 22.0°C (72°F)
Dewpoint: 19.0°C (66°F) [RH = 83%]
Pressure (altimeter): 29.73 inches Hg (1007.0 mb)
Winds: variable direction winds at 1 MPH (1 knots; 0.5 m/s)
Visibility: 1.99 miles (3.20 km)
Ceiling: 800 feet AGL
Clouds: scattered clouds at 300 feet AGL
broken clouds at 800 feet AGL
overcast cloud deck at 1500 feet AGL
few clouds at 1500 feet AGL
Weather: SHRA BR  (rain showers, mist)

METAR text: RJFY 030327Z VRB01KT 3100 +SHRA BR SCT003 BKN008 OVC015 SCT015CB 21/19 Q1007 RMK 3ST003 6ST008 8CU015 3CB015 A2975 CB OHD MOV E
Conditions at: RJFY (KANOYA (JMSDF) , JP) observed 0327 UTC 03 June 2020
Temperature: 21.0°C (70°F)
Dewpoint: 19.0°C (66°F) [RH = 88%]
Pressure (altimeter): 29.73 inches Hg (1007.0 mb)
Winds: variable direction winds at 1 MPH (1 knots; 0.5 m/s)
Visibility: 1.93 miles (3.11 km)
Ceiling: 800 feet AGL
Clouds: scattered clouds at 300 feet AGL
broken clouds at 800 feet AGL
overcast cloud deck at 1500 feet AGL
scattered clouds at 1500 feet AGL
Weather: +SHRA BR  (heavy rain showers, mist)

METAR text: RJFY 030314Z 29002KT 3200 SHRA BR SCT003 BKN008 OVC015 FEW015CB 21/19 Q1007 RMK 3ST003 6ST008 8CU015 1CB015 A2976 CB 10KM SE MOV E
Conditions at: RJFY (KANOYA (JMSDF) , JP) observed 0314 UTC 03 June 2020
Temperature: 21.0°C (70°F)
Dewpoint: 19.0°C (66°F) [RH = 88%]
Pressure (altimeter): 29.73 inches Hg (1007.0 mb)
Winds: from the WNW (290 degrees) at 2 MPH (2 knots; 1.0 m/s)
Visibility: 1.99 miles (3.20 km)
Ceiling: 800 feet AGL
Clouds: scattered clouds at 300 feet AGL
broken clouds at 800 feet AGL
overcast cloud deck at 1500 feet AGL
few clouds at 1500 feet AGL
Weather: SHRA BR  (rain showers, mist)

METAR text: RJFY 030304Z 05003KT 010V120 3000 +SHRA BR SCT003 BKN008 OVC015 SCT015CB 21/19 Q1007 RMK 3ST003 6ST008 8CU015 3CB015 A2975 CB 5KM SW MOV E
Conditions at: RJFY (KANOYA (JMSDF) , JP) observed 0304 UTC 03 June 2020
Temperature: 21.0°C (70°F)
Dewpoint: 19.0°C (66°F) [RH = 88%]
Pressure (altimeter): 29.73 inches Hg (1007.0 mb)
Winds: from the NE (50 degrees) at 3 MPH (3 knots; 1.5 m/s)
Visibility: 1.86 miles (2.99 km)
Ceiling: 800 feet AGL
Clouds: scattered clouds at 300 feet AGL
broken clouds at 800 feet AGL
overcast cloud deck at 1500 feet AGL
scattered clouds at 1500 feet AGL
Weather: +SHRA BR  (heavy rain showers, mist)

METAR text: RJFY 030239Z VRB02KT 3100 SHRA BR SCT003 BKN008 OVC015 FEW015CB 21/19 Q1007 RMK 3ST003 6ST008 8CU015 1CB015 A2975 CB 20KM SW-W MOV E
Conditions at: RJFY (KANOYA (JMSDF) , JP) observed 0239 UTC 03 June 2020
Temperature: 21.0°C (70°F)
Dewpoint: 19.0°C (66°F) [RH = 88%]
Pressure (altimeter): 29.73 inches Hg (1007.0 mb)
Winds: variable direction winds at 2 MPH (2 knots; 1.0 m/s)
Visibility: 1.93 miles (3.11 km)
Ceiling: 800 feet AGL
Clouds: scattered clouds at 300 feet AGL
broken clouds at 800 feet AGL
overcast cloud deck at 1500 feet AGL
few clouds at 1500 feet AGL
Weather: SHRA BR  (rain showers, mist)

METAR text: RJFY 030207Z 09002KT 3200 -SHRA BR FEW003 BKN008 OVC015 FEW015CB 21/19 Q1007 RMK 2ST003 5ST008 8CU015 1CB015 A2976 CB 15KM SE MOV E
Conditions at: RJFY (KANOYA (JMSDF) , JP) observed 0207 UTC 03 June 2020
Temperature: 21.0°C (70°F)
Dewpoint: 19.0°C (66°F) [RH = 88%]
Pressure (altimeter): 29.73 inches Hg (1007.0 mb)
Winds: from the E (90 degrees) at 2 MPH (2 knots; 1.0 m/s)
Visibility: 1.99 miles (3.20 km)
Ceiling: 800 feet AGL
Clouds: few clouds at 300 feet AGL
broken clouds at 800 feet AGL
overcast cloud deck at 1500 feet AGL
few clouds at 1500 feet AGL
Weather: -SHRA BR  (light rain showers, mist)

METAR text: RJFY 030143Z 12002KT 2400 SHRA BR SCT003 BKN008 OVC015 FEW015CB 21/18 Q1007 RMK 3ST003 5ST008 8CU015 2CB015 A2976 CB 5KM SE MOV E
Conditions at: RJFY (KANOYA (JMSDF) , JP) observed 0143 UTC 03 June 2020
Temperature: 21.0°C (70°F)
Dewpoint: 18.0°C (64°F) [RH = 83%]
Pressure (altimeter): 29.73 inches Hg (1007.0 mb)
Winds: from the ESE (120 degrees) at 2 MPH (2 knots; 1.0 m/s)
Visibility: 1.49 miles (2.40 km)
Ceiling: 800 feet AGL
Clouds: scattered clouds at 300 feet AGL
broken clouds at 800 feet AGL
overcast cloud deck at 1500 feet AGL
few clouds at 1500 feet AGL
Weather: SHRA BR  (rain showers, mist)

METAR text: RJFY 030135Z 13002KT 2300 +SHRA BR SCT003 BKN008 OVC015 SCT015CB 21/18 Q1007 RMK 3ST003 5ST008 8CU015 3CB015 A2976 CB 5KM S-SW MOV E
Conditions at: RJFY (KANOYA (JMSDF) , JP) observed 0135 UTC 03 June 2020
Temperature: 21.0°C (70°F)
Dewpoint: 18.0°C (64°F) [RH = 83%]
Pressure (altimeter): 29.73 inches Hg (1007.0 mb)
Winds: from the SE (130 degrees) at 2 MPH (2 knots; 1.0 m/s)
Visibility: 1.43 miles (2.30 km)
Ceiling: 800 feet AGL
Clouds: scattered clouds at 300 feet AGL
broken clouds at 800 feet AGL
overcast cloud deck at 1500 feet AGL
scattered clouds at 1500 feet AGL
Weather: +SHRA BR  (heavy rain showers, mist)

METAR text: RJFY 030122Z VRB02KT 3100 SHRA BR FEW001 SCT003 BKN008 FEW015CB 21/18 Q1007 RMK 1ST001 3ST003 5ST008 2CB015 A2976 CB 15KM W MOV E
Conditions at: RJFY (KANOYA (JMSDF) , JP) observed 0122 UTC 03 June 2020
Temperature: 21.0°C (70°F)
Dewpoint: 18.0°C (64°F) [RH = 83%]
Pressure (altimeter): 29.73 inches Hg (1007.0 mb)
Winds: variable direction winds at 2 MPH (2 knots; 1.0 m/s)
Visibility: 1.93 miles (3.11 km)
Ceiling: 800 feet AGL
Clouds: few clouds at 100 feet AGL
scattered clouds at 300 feet AGL
broken clouds at 800 feet AGL
few clouds at 1500 feet AGL
Weather: SHRA BR  (rain showers, mist)

METAR text: RJFY 030050Z 07003KT 4000 -SHRA BR FEW001 SCT003 BKN008 21/18 Q1007 RMK 1ST001 3ST003 5ST008 A2975
Conditions at: RJFY (KANOYA (JMSDF) , JP) observed 0050 UTC 03 June 2020
Temperature: 21.0°C (70°F)
Dewpoint: 18.0°C (64°F) [RH = 83%]
Pressure (altimeter): 29.73 inches Hg (1007.0 mb)
Winds: from the ENE (70 degrees) at 3 MPH (3 knots; 1.5 m/s)
Visibility: 2.49 miles (4.01 km)
Ceiling: 800 feet AGL
Clouds: few clouds at 100 feet AGL
scattered clouds at 300 feet AGL
broken clouds at 800 feet AGL
Weather: -SHRA BR  (light rain showers, mist)

METAR text: RJFY 030020Z 07002KT 4900 -SHRA BR FEW001 SCT008 OVC015 20/18 Q1007 RMK 1ST001 3ST008 8CU015 A2976
Conditions at: RJFY (KANOYA (JMSDF) , JP) observed 0020 UTC 03 June 2020
Temperature: 20.0°C (68°F)
Dewpoint: 18.0°C (64°F) [RH = 88%]
Pressure (altimeter): 29.73 inches Hg (1007.0 mb)
Winds: from the ENE (70 degrees) at 2 MPH (2 knots; 1.0 m/s)
Visibility: 3 miles ( 5 km)
Ceiling: 1500 feet AGL
Clouds: few clouds at 100 feet AGL
scattered clouds at 800 feet AGL
overcast cloud deck at 1500 feet AGL
Weather: -SHRA BR  (light rain showers, mist)

METAR text: RJFY 030009Z VRB01KT 4900 SHRA BR FEW001 SCT008 OVC015 20/18 Q1007 RMK 1ST001 3ST008 8CU015 A2976
Conditions at: RJFY (KANOYA (JMSDF) , JP) observed 0009 UTC 03 June 2020
Temperature: 20.0°C (68°F)
Dewpoint: 18.0°C (64°F) [RH = 88%]
Pressure (altimeter): 29.73 inches Hg (1007.0 mb)
Winds: variable direction winds at 1 MPH (1 knots; 0.5 m/s)
Visibility: 3 miles ( 5 km)
Ceiling: 1500 feet AGL
Clouds: few clouds at 100 feet AGL
scattered clouds at 800 feet AGL
overcast cloud deck at 1500 feet AGL
Weather: SHRA BR  (rain showers, mist)

METAR text: RJFY 022137Z 06004KT 020V090 5000 -SHRA BR FEW003 SCT015 OVC025 19/17 Q1007 RMK 2ST003 4CU015 8CU025 A2974
Conditions at: RJFY (KANOYA (JMSDF) , JP) observed 2137 UTC 02 June 2020
Temperature: 19.0°C (66°F)
Dewpoint: 17.0°C (63°F) [RH = 88%]
Pressure (altimeter): 29.73 inches Hg (1007.0 mb)
Winds: from the ENE (60 degrees) at 5 MPH (4 knots; 2.1 m/s)
Visibility: 3 miles ( 5 km)
Ceiling: 2500 feet AGL
Clouds: few clouds at 300 feet AGL
scattered clouds at 1500 feet AGL
overcast cloud deck at 2500 feet AGL
Weather: -SHRA BR  (light rain showers, mist)

METAR text: RJFY 022121Z 04005KT 010V070 3200 -SHRA BR FEW004 BKN015 OVC025 19/17 Q1007 RMK 2ST004 5CU015 8CU025 A2974
Conditions at: RJFY (KANOYA (JMSDF) , JP) observed 2121 UTC 02 June 2020
Temperature: 19.0°C (66°F)
Dewpoint: 17.0°C (63°F) [RH = 88%]
Pressure (altimeter): 29.73 inches Hg (1007.0 mb)
Winds: from the NE (40 degrees) at 6 MPH (5 knots; 2.6 m/s)
Visibility: 1.99 miles (3.20 km)
Ceiling: 1500 feet AGL
Clouds: few clouds at 400 feet AGL
broken clouds at 1500 feet AGL
overcast cloud deck at 2500 feet AGL
Weather: -SHRA BR  (light rain showers, mist)

METAR text: RJFY 022102Z 06002KT 2500 SHRA BR SCT004 SCT010 OVC015 20/17 Q1007 RMK 3ST004 4ST010 8CU015 A2974
Conditions at: RJFY (KANOYA (JMSDF) , JP) observed 2102 UTC 02 June 2020
Temperature: 20.0°C (68°F)
Dewpoint: 17.0°C (63°F) [RH = 83%]
Pressure (altimeter): 29.73 inches Hg (1007.0 mb)
Winds: from the ENE (60 degrees) at 2 MPH (2 knots; 1.0 m/s)
Visibility: 1.55 miles (2.49 km)
Ceiling: 1500 feet AGL
Clouds: scattered clouds at 400 feet AGL
scattered clouds at 1000 feet AGL
overcast cloud deck at 1500 feet AGL
Weather: SHRA BR  (rain showers, mist)

METAR text: RJFY 022037Z 08003KT 040V180 2500 -SHRA BR SCT005 SCT010 OVC015 20/17 Q1007 RMK 3ST005 4ST010 8CU015 A2974
Conditions at: RJFY (KANOYA (JMSDF) , JP) observed 2037 UTC 02 June 2020
Temperature: 20.0°C (68°F)
Dewpoint: 17.0°C (63°F) [RH = 83%]
Pressure (altimeter): 29.73 inches Hg (1007.0 mb)
Winds: from the E (80 degrees) at 3 MPH (3 knots; 1.5 m/s)
Visibility: 1.55 miles (2.49 km)
Ceiling: 1500 feet AGL
Clouds: scattered clouds at 500 feet AGL
scattered clouds at 1000 feet AGL
overcast cloud deck at 1500 feet AGL
Weather: -SHRA BR  (light rain showers, mist)

METAR text: RJFY 022021Z 06003KT 030V090 3100 SHRA BR FEW005 SCT010 OVC015 20/17 Q1007 RMK 2ST005 3ST010 8CU015 A2974
Conditions at: RJFY (KANOYA (JMSDF) , JP) observed 2021 UTC 02 June 2020
Temperature: 20.0°C (68°F)
Dewpoint: 17.0°C (63°F) [RH = 83%]
Pressure (altimeter): 29.73 inches Hg (1007.0 mb)
Winds: from the ENE (60 degrees) at 3 MPH (3 knots; 1.5 m/s)
Visibility: 1.93 miles (3.11 km)
Ceiling: 1500 feet AGL
Clouds: few clouds at 500 feet AGL
scattered clouds at 1000 feet AGL
overcast cloud deck at 1500 feet AGL
Weather: SHRA BR  (rain showers, mist)

METAR text: RJFY 021950Z 04003KT 4900 -SHRA BR FEW008 SCT015 OVC020 20/17 Q1007 RMK 2ST008 3CU015 8CU020 A2974
Conditions at: RJFY (KANOYA (JMSDF) , JP) observed 1950 UTC 02 June 2020
Temperature: 20.0°C (68°F)
Dewpoint: 17.0°C (63°F) [RH = 83%]
Pressure (altimeter): 29.73 inches Hg (1007.0 mb)
Winds: from the NE (40 degrees) at 3 MPH (3 knots; 1.5 m/s)
Visibility: 3 miles ( 5 km)
Ceiling: 2000 feet AGL
Clouds: few clouds at 800 feet AGL
scattered clouds at 1500 feet AGL
overcast cloud deck at 2000 feet AGL
Weather: -SHRA BR  (light rain showers, mist)

METAR text: RJFY 021940Z 03004KT 350V060 5000 -SHRA BR SCT015 OVC020 FEW020CB 20/17 Q1007 RMK 3CU015 8CU020 1CB020 A2974 CB 5KM NE MOV NE
Conditions at: RJFY (KANOYA (JMSDF) , JP) observed 1940 UTC 02 June 2020
Temperature: 20.0°C (68°F)
Dewpoint: 17.0°C (63°F) [RH = 83%]
Pressure (altimeter): 29.73 inches Hg (1007.0 mb)
Winds: from the NNE (30 degrees) at 5 MPH (4 knots; 2.1 m/s)
Visibility: 3 miles ( 5 km)
Ceiling: 2000 feet AGL
Clouds: scattered clouds at 1500 feet AGL
overcast cloud deck at 2000 feet AGL
few clouds at 2000 feet AGL
Weather: -SHRA BR  (light rain showers, mist)

METAR text: RJFY 021921Z 01002KT 5000 +SHRA BR SCT015 OVC020 SCT020CB 20/17 Q1007 RMK 3CU015 8CU020 3CB020 A2974 CB OHD MOV NE
Conditions at: RJFY (KANOYA (JMSDF) , JP) observed 1921 UTC 02 June 2020
Temperature: 20.0°C (68°F)
Dewpoint: 17.0°C (63°F) [RH = 83%]
Pressure (altimeter): 29.73 inches Hg (1007.0 mb)
Winds: from the N (10 degrees) at 2 MPH (2 knots; 1.0 m/s)
Visibility: 3 miles ( 5 km)
Ceiling: 2000 feet AGL
Clouds: scattered clouds at 1500 feet AGL
overcast cloud deck at 2000 feet AGL
scattered clouds at 2000 feet AGL
Weather: +SHRA BR  (heavy rain showers, mist)

METAR text: RJFY 021917Z 04004KT 9999 SHRA SCT015 OVC020 FEW020CB 20/17 Q1007 RMK 3CU015 8CU020 1CB020 A2974 CB 5KM SW MOV NE
Conditions at: RJFY (KANOYA (JMSDF) , JP) observed 1917 UTC 02 June 2020
Temperature: 20.0°C (68°F)
Dewpoint: 17.0°C (63°F) [RH = 83%]
Pressure (altimeter): 29.73 inches Hg (1007.0 mb)
Winds: from the NE (40 degrees) at 5 MPH (4 knots; 2.1 m/s)
Visibility: 6 or more miles (10+ km)
Ceiling: 2000 feet AGL
Clouds: scattered clouds at 1500 feet AGL
overcast cloud deck at 2000 feet AGL
few clouds at 2000 feet AGL
Weather: SHRA  (rain showers)